sensor_id;sensor_type;location;lat;lon;timestamp;P1;durP1;ratioP1;P2;durP2;ratioP2
18302;SDS011;9277;37.980;23.748;2024-02-21T00:00:04;24.10;;;12.02;;
18302;SDS011;9277;37.980;23.748;2024-02-21T00:02:31;26.95;;;12.05;;
18302;SDS011;9277;37.980;23.748;2024-02-21T00:04:58;23.48;;;11.65;;
18302;SDS011;9277;37.980;23.748;2024-02-21T00:07:25;22.60;;;11.32;;
18302;SDS011;9277;37.980;23.748;2024-02-21T00:09:52;21.27;;;10.70;;
18302;SDS011;9277;37.980;23.748;2024-02-21T00:12:19;18.80;;;10.45;;
18302;SDS011;9277;37.980;23.748;2024-02-21T00:14:47;21.52;;;10.23;;
18302;SDS011;9277;37.980;23.748;2024-02-21T00:17:14;19.38;;;9.60;;
18302;SDS011;9277;37.980;23.748;2024-02-21T00:19:41;15.18;;;9.00;;
18302;SDS011;9277;37.980;23.748;2024-02-21T00:22:08;15.65;;;9.23;;
18302;SDS011;9277;37.980;23.748;2024-02-21T00:24:35;13.85;;;8.10;;
18302;SDS011;9277;37.980;23.748;2024-02-21T00:27:02;15.35;;;8.15;;
18302;SDS011;9277;37.980;23.748;2024-02-21T00:29:29;13.43;;;7.25;;
18302;SDS011;9277;37.980;23.748;2024-02-21T00:31:57;10.73;;;6.60;;
18302;SDS011;9277;37.980;23.748;2024-02-21T00:34:24;11.48;;;6.18;;
18302;SDS011;9277;37.980;23.748;2024-02-21T00:36:51;12.32;;;6.72;;
18302;SDS011;9277;37.980;23.748;2024-02-21T00:39:18;10.15;;;6.00;;
18302;SDS011;9277;37.980;23.748;2024-02-21T00:41:45;12.95;;;6.00;;
18302;SDS011;9277;37.980;23.748;2024-02-21T00:44:12;11.30;;;5.88;;
18302;SDS011;9277;37.980;23.748;2024-02-21T00:46:39;11.70;;;6.18;;
18302;SDS011;9277;37.980;23.748;2024-02-21T00:49:07;10.82;;;5.60;;
18302;SDS011;9277;37.980;23.748;2024-02-21T00:51:34;10.73;;;5.55;;
18302;SDS011;9277;37.980;23.748;2024-02-21T00:54:01;10.60;;;5.63;;
18302;SDS011;9277;37.980;23.748;2024-02-21T00:56:28;9.95;;;5.28;;
18302;SDS011;9277;37.980;23.748;2024-02-21T00:58:56;9.77;;;4.93;;
18302;SDS011;9277;37.980;23.748;2024-02-21T01:01:23;10.35;;;5.38;;
18302;SDS011;9277;37.980;23.748;2024-02-21T01:03:50;10.98;;;5.28;;
18302;SDS011;9277;37.980;23.748;2024-02-21T01:06:20;8.15;;;5.10;;
18302;SDS011;9277;37.980;23.748;2024-02-21T01:08:47;13.00;;;5.85;;
18302;SDS011;9277;37.980;23.748;2024-02-21T01:11:14;8.95;;;4.97;;
18302;SDS011;9277;37.980;23.748;2024-02-21T01:13:41;9.52;;;5.35;;
18302;SDS011;9277;37.980;23.748;2024-02-21T01:16:08;13.50;;;5.15;;
18302;SDS011;9277;37.980;23.748;2024-02-21T01:18:36;8.95;;;4.93;;
18302;SDS011;9277;37.980;23.748;2024-02-21T01:21:04;9.00;;;5.20;;
18302;SDS011;9277;37.980;23.748;2024-02-21T01:23:34;9.05;;;5.18;;
18302;SDS011;9277;37.980;23.748;2024-02-21T01:26:01;9.35;;;4.70;;
18302;SDS011;9277;37.980;23.748;2024-02-21T01:28:28;8.10;;;4.72;;
18302;SDS011;9277;37.980;23.748;2024-02-21T01:30:55;8.95;;;5.13;;
18302;SDS011;9277;37.980;23.748;2024-02-21T01:33:23;10.57;;;4.82;;
18302;SDS011;9277;37.980;23.748;2024-02-21T01:35:49;8.85;;;5.32;;
18302;SDS011;9277;37.980;23.748;2024-02-21T01:38:16;9.57;;;5.10;;
18302;SDS011;9277;37.980;23.748;2024-02-21T01:40:45;10.00;;;5.63;;
18302;SDS011;9277;37.980;23.748;2024-02-21T01:43:15;9.55;;;5.32;;
18302;SDS011;9277;37.980;23.748;2024-02-21T01:45:42;11.82;;;5.70;;
18302;SDS011;9277;37.980;23.748;2024-02-21T01:48:09;11.05;;;5.03;;
18302;SDS011;9277;37.980;23.748;2024-02-21T01:50:36;9.73;;;5.50;;
18302;SDS011;9277;37.980;23.748;2024-02-21T01:53:03;7.68;;;5.10;;
18302;SDS011;9277;37.980;23.748;2024-02-21T01:55:30;10.80;;;4.70;;
18302;SDS011;9277;37.980;23.748;2024-02-21T01:57:58;9.05;;;5.07;;
18302;SDS011;9277;37.980;23.748;2024-02-21T02:00:25;11.82;;;5.40;;
18302;SDS011;9277;37.980;23.748;2024-02-21T02:02:53;9.05;;;5.38;;
18302;SDS011;9277;37.980;23.748;2024-02-21T02:05:21;11.52;;;5.82;;
18302;SDS011;9277;37.980;23.748;2024-02-21T02:07:48;8.85;;;5.10;;
18302;SDS011;9277;37.980;23.748;2024-02-21T02:10:15;9.07;;;5.47;;
18302;SDS011;9277;37.980;23.748;2024-02-21T02:12:42;10.68;;;4.95;;
18302;SDS011;9277;37.980;23.748;2024-02-21T02:15:11;8.48;;;5.05;;
18302;SDS011;9277;37.980;23.748;2024-02-21T02:17:38;9.65;;;4.95;;
18302;SDS011;9277;37.980;23.748;2024-02-21T02:20:05;10.30;;;5.70;;
18302;SDS011;9277;37.980;23.748;2024-02-21T02:22:33;10.18;;;5.55;;
18302;SDS011;9277;37.980;23.748;2024-02-21T02:25:03;13.38;;;5.47;;
18302;SDS011;9277;37.980;23.748;2024-02-21T02:27:30;12.77;;;5.93;;
18302;SDS011;9277;37.980;23.748;2024-02-21T02:29:57;13.10;;;5.22;;
18302;SDS011;9277;37.980;23.748;2024-02-21T02:32:24;9.43;;;5.22;;
18302;SDS011;9277;37.980;23.748;2024-02-21T02:34:51;9.77;;;5.20;;
18302;SDS011;9277;37.980;23.748;2024-02-21T02:37:18;9.02;;;4.60;;
18302;SDS011;9277;37.980;23.748;2024-02-21T02:39:45;6.63;;;4.43;;
18302;SDS011;9277;37.980;23.748;2024-02-21T02:42:14;8.95;;;4.88;;
18302;SDS011;9277;37.980;23.748;2024-02-21T02:44:41;6.53;;;4.43;;
18302;SDS011;9277;37.980;23.748;2024-02-21T02:47:08;9.15;;;4.72;;
18302;SDS011;9277;37.980;23.748;2024-02-21T02:49:35;8.35;;;4.65;;
18302;SDS011;9277;37.980;23.748;2024-02-21T02:52:02;9.98;;;4.72;;
18302;SDS011;9277;37.980;23.748;2024-02-21T02:54:29;10.20;;;4.63;;
18302;SDS011;9277;37.980;23.748;2024-02-21T02:56:56;7.30;;;4.43;;
18302;SDS011;9277;37.980;23.748;2024-02-21T02:59:25;10.85;;;5.50;;
18302;SDS011;9277;37.980;23.748;2024-02-21T03:01:52;7.18;;;3.92;;
18302;SDS011;9277;37.980;23.748;2024-02-21T03:04:18;9.10;;;4.95;;
18302;SDS011;9277;37.980;23.748;2024-02-21T03:06:45;8.00;;;5.13;;
18302;SDS011;9277;37.980;23.748;2024-02-21T03:09:12;10.90;;;4.70;;
18302;SDS011;9277;37.980;23.748;2024-02-21T03:11:40;9.35;;;4.53;;
18302;SDS011;9277;37.980;23.748;2024-02-21T03:14:09;8.23;;;4.53;;
18302;SDS011;9277;37.980;23.748;2024-02-21T03:16:38;7.45;;;4.60;;
18302;SDS011;9277;37.980;23.748;2024-02-21T03:19:05;6.05;;;4.43;;
18302;SDS011;9277;37.980;23.748;2024-02-21T03:21:32;11.25;;;4.82;;
18302;SDS011;9277;37.980;23.748;2024-02-21T03:23:59;7.88;;;4.72;;
18302;SDS011;9277;37.980;23.748;2024-02-21T03:26:26;9.60;;;5.40;;
18302;SDS011;9277;37.980;23.748;2024-02-21T03:28:53;8.02;;;4.40;;
18302;SDS011;9277;37.980;23.748;2024-02-21T03:31:20;7.40;;;4.63;;
18302;SDS011;9277;37.980;23.748;2024-02-21T03:33:48;7.85;;;5.05;;
18302;SDS011;9277;37.980;23.748;2024-02-21T03:36:15;9.07;;;4.40;;
18302;SDS011;9277;37.980;23.748;2024-02-21T03:38:42;7.40;;;4.55;;
18302;SDS011;9277;37.980;23.748;2024-02-21T03:41:10;7.18;;;4.70;;
18302;SDS011;9277;37.980;23.748;2024-02-21T03:43:37;9.82;;;5.30;;
18302;SDS011;9277;37.980;23.748;2024-02-21T03:46:04;7.47;;;4.53;;
18302;SDS011;9277;37.980;23.748;2024-02-21T03:48:31;13.43;;;5.40;;
18302;SDS011;9277;37.980;23.748;2024-02-21T03:51:00;9.57;;;5.68;;
18302;SDS011;9277;37.980;23.748;2024-02-21T03:53:27;9.55;;;5.50;;
18302;SDS011;9277;37.980;23.748;2024-02-21T03:55:54;8.23;;;4.68;;
18302;SDS011;9277;37.980;23.748;2024-02-21T03:58:21;9.27;;;5.05;;
18302;SDS011;9277;37.980;23.748;2024-02-21T04:00:48;7.22;;;4.47;;
18302;SDS011;9277;37.980;23.748;2024-02-21T04:03:15;10.20;;;5.10;;
18302;SDS011;9277;37.980;23.748;2024-02-21T04:05:42;8.77;;;5.07;;
18302;SDS011;9277;37.980;23.748;2024-02-21T04:08:11;9.02;;;4.97;;
18302;SDS011;9277;37.980;23.748;2024-02-21T04:10:38;9.00;;;4.90;;
18302;SDS011;9277;37.980;23.748;2024-02-21T04:13:05;9.95;;;5.47;;
18302;SDS011;9277;37.980;23.748;2024-02-21T04:15:33;10.20;;;5.28;;
18302;SDS011;9277;37.980;23.748;2024-02-21T04:18:00;10.45;;;4.82;;
18302;SDS011;9277;37.980;23.748;2024-02-21T04:20:28;8.85;;;4.72;;
18302;SDS011;9277;37.980;23.748;2024-02-21T04:22:55;6.70;;;4.63;;
18302;SDS011;9277;37.980;23.748;2024-02-21T04:25:24;6.22;;;4.47;;
18302;SDS011;9277;37.980;23.748;2024-02-21T04:27:51;9.70;;;4.95;;
18302;SDS011;9277;37.980;23.748;2024-02-21T04:30:18;10.68;;;4.88;;
18302;SDS011;9277;37.980;23.748;2024-02-21T04:32:45;6.35;;;4.13;;
18302;SDS011;9277;37.980;23.748;2024-02-21T04:35:12;10.50;;;5.00;;
18302;SDS011;9277;37.980;23.748;2024-02-21T04:37:39;9.65;;;5.07;;
18302;SDS011;9277;37.980;23.748;2024-02-21T04:40:06;9.50;;;5.35;;
18302;SDS011;9277;37.980;23.748;2024-02-21T04:42:35;11.43;;;5.72;;
18302;SDS011;9277;37.980;23.748;2024-02-21T04:45:03;10.43;;;5.32;;
18302;SDS011;9277;37.980;23.748;2024-02-21T04:47:30;10.23;;;5.22;;
18302;SDS011;9277;37.980;23.748;2024-02-21T04:49:57;9.55;;;5.25;;
18302;SDS011;9277;37.980;23.748;2024-02-21T04:52:24;8.25;;;4.80;;
18302;SDS011;9277;37.980;23.748;2024-02-21T04:54:51;8.38;;;5.38;;
18302;SDS011;9277;37.980;23.748;2024-02-21T04:57:18;10.20;;;5.43;;
18302;SDS011;9277;37.980;23.748;2024-02-21T04:59:46;11.52;;;5.05;;
18302;SDS011;9277;37.980;23.748;2024-02-21T05:02:14;10.65;;;5.57;;
18302;SDS011;9277;37.980;23.748;2024-02-21T05:04:41;7.68;;;5.18;;
18302;SDS011;9277;37.980;23.748;2024-02-21T05:07:09;15.10;;;6.53;;
18302;SDS011;9277;37.980;23.748;2024-02-21T05:09:37;11.18;;;5.43;;
18302;SDS011;9277;37.980;23.748;2024-02-21T05:12:04;11.35;;;5.60;;
18302;SDS011;9277;37.980;23.748;2024-02-21T05:14:31;11.02;;;5.70;;
18302;SDS011;9277;37.980;23.748;2024-02-21T05:16:59;7.25;;;5.03;;
18302;SDS011;9277;37.980;23.748;2024-02-21T05:19:26;9.25;;;5.43;;
18302;SDS011;9277;37.980;23.748;2024-02-21T05:21:53;11.25;;;5.63;;
18302;SDS011;9277;37.980;23.748;2024-02-21T05:24:20;9.65;;;5.00;;
18302;SDS011;9277;37.980;23.748;2024-02-21T05:26:47;12.02;;;5.78;;
18302;SDS011;9277;37.980;23.748;2024-02-21T05:29:13;12.25;;;6.05;;
18302;SDS011;9277;37.980;23.748;2024-02-21T05:31:54;9.02;;;5.43;;
18302;SDS011;9277;37.980;23.748;2024-02-21T05:34:24;11.43;;;5.60;;
18302;SDS011;9277;37.980;23.748;2024-02-21T05:36:51;8.73;;;5.10;;
18302;SDS011;9277;37.980;23.748;2024-02-21T05:39:17;10.68;;;5.13;;
18302;SDS011;9277;37.980;23.748;2024-02-21T05:41:45;12.50;;;6.22;;
18302;SDS011;9277;37.980;23.748;2024-02-21T05:44:12;11.27;;;5.55;;
18302;SDS011;9277;37.980;23.748;2024-02-21T05:46:38;10.52;;;5.32;;
18302;SDS011;9277;37.980;23.748;2024-02-21T05:49:05;9.98;;;5.47;;
18302;SDS011;9277;37.980;23.748;2024-02-21T05:51:34;11.15;;;5.28;;
18302;SDS011;9277;37.980;23.748;2024-02-21T05:54:01;9.38;;;5.22;;
18302;SDS011;9277;37.980;23.748;2024-02-21T05:56:28;11.50;;;5.43;;
18302;SDS011;9277;37.980;23.748;2024-02-21T05:58:55;13.65;;;5.25;;
18302;SDS011;9277;37.980;23.748;2024-02-21T06:01:22;7.22;;;4.90;;
18302;SDS011;9277;37.980;23.748;2024-02-21T06:03:49;10.00;;;5.10;;
18302;SDS011;9277;37.980;23.748;2024-02-21T06:06:16;10.23;;;5.25;;
18302;SDS011;9277;37.980;23.748;2024-02-21T06:08:44;12.93;;;5.95;;
18302;SDS011;9277;37.980;23.748;2024-02-21T06:11:11;11.65;;;5.53;;
18302;SDS011;9277;37.980;23.748;2024-02-21T06:13:40;10.43;;;5.47;;
18302;SDS011;9277;37.980;23.748;2024-02-21T06:16:07;8.88;;;5.22;;
18302;SDS011;9277;37.980;23.748;2024-02-21T06:18:34;12.98;;;5.05;;
18302;SDS011;9277;37.980;23.748;2024-02-21T06:21:01;10.00;;;5.22;;
18302;SDS011;9277;37.980;23.748;2024-02-21T06:23:28;9.10;;;5.20;;
18302;SDS011;9277;37.980;23.748;2024-02-21T06:25:57;9.52;;;5.07;;
18302;SDS011;9277;37.980;23.748;2024-02-21T06:28:23;11.68;;;4.75;;
18302;SDS011;9277;37.980;23.748;2024-02-21T06:30:50;12.75;;;5.45;;
18302;SDS011;9277;37.980;23.748;2024-02-21T06:33:17;9.90;;;5.55;;
18302;SDS011;9277;37.980;23.748;2024-02-21T06:35:47;8.77;;;4.95;;
18302;SDS011;9277;37.980;23.748;2024-02-21T06:38:17;10.15;;;4.78;;
18302;SDS011;9277;37.980;23.748;2024-02-21T06:40:44;9.48;;;4.97;;
18302;SDS011;9277;37.980;23.748;2024-02-21T06:43:16;8.65;;;4.88;;
18302;SDS011;9277;37.980;23.748;2024-02-21T06:45:43;18.08;;;6.25;;
18302;SDS011;9277;37.980;23.748;2024-02-21T06:48:12;8.05;;;5.07;;
18302;SDS011;9277;37.980;23.748;2024-02-21T06:50:39;7.28;;;4.65;;
18302;SDS011;9277;37.980;23.748;2024-02-21T06:53:07;10.52;;;4.95;;
18302;SDS011;9277;37.980;23.748;2024-02-21T06:55:34;12.88;;;5.38;;
18302;SDS011;9277;37.980;23.748;2024-02-21T06:58:00;7.70;;;5.18;;
18302;SDS011;9277;37.980;23.748;2024-02-21T07:00:29;6.03;;;4.38;;
18302;SDS011;9277;37.980;23.748;2024-02-21T07:02:56;9.98;;;5.60;;
18302;SDS011;9277;37.980;23.748;2024-02-21T07:05:23;7.80;;;4.93;;
18302;SDS011;9277;37.980;23.748;2024-02-21T07:07:50;12.65;;;5.30;;
18302;SDS011;9277;37.980;23.748;2024-02-21T07:10:17;8.80;;;5.20;;
18302;SDS011;9277;37.980;23.748;2024-02-21T07:12:44;10.48;;;5.60;;
18302;SDS011;9277;37.980;23.748;2024-02-21T07:15:10;10.43;;;5.22;;
18302;SDS011;9277;37.980;23.748;2024-02-21T07:17:39;8.40;;;5.05;;
18302;SDS011;9277;37.980;23.748;2024-02-21T07:20:06;9.85;;;4.95;;
18302;SDS011;9277;37.980;23.748;2024-02-21T07:22:34;7.75;;;4.68;;
18302;SDS011;9277;37.980;23.748;2024-02-21T07:25:00;11.07;;;5.13;;
18302;SDS011;9277;37.980;23.748;2024-02-21T07:27:27;7.45;;;5.00;;
18302;SDS011;9277;37.980;23.748;2024-02-21T07:29:56;8.02;;;4.60;;
18302;SDS011;9277;37.980;23.748;2024-02-21T07:32:23;9.50;;;4.57;;
18302;SDS011;9277;37.980;23.748;2024-02-21T07:34:51;10.55;;;4.80;;
18302;SDS011;9277;37.980;23.748;2024-02-21T07:37:18;8.02;;;4.80;;
18302;SDS011;9277;37.980;23.748;2024-02-21T07:39:45;10.50;;;5.28;;
18302;SDS011;9277;37.980;23.748;2024-02-21T07:42:12;7.88;;;4.97;;
18302;SDS011;9277;37.980;23.748;2024-02-21T07:44:39;8.18;;;4.90;;
18302;SDS011;9277;37.980;23.748;2024-02-21T07:47:06;8.70;;;4.93;;
18302;SDS011;9277;37.980;23.748;2024-02-21T07:49:40;7.20;;;4.97;;
18302;SDS011;9277;37.980;23.748;2024-02-21T07:52:08;10.52;;;5.07;;
18302;SDS011;9277;37.980;23.748;2024-02-21T07:54:35;8.35;;;5.18;;
18302;SDS011;9277;37.980;23.748;2024-02-21T07:57:02;8.75;;;4.55;;
18302;SDS011;9277;37.980;23.748;2024-02-21T07:59:29;9.98;;;5.13;;
18302;SDS011;9277;37.980;23.748;2024-02-21T08:01:56;11.60;;;4.70;;
18302;SDS011;9277;37.980;23.748;2024-02-21T08:04:23;7.07;;;4.22;;
18302;SDS011;9277;37.980;23.748;2024-02-21T08:06:51;6.85;;;4.25;;
18302;SDS011;9277;37.980;23.748;2024-02-21T08:09:20;7.32;;;4.45;;
18302;SDS011;9277;37.980;23.748;2024-02-21T08:11:47;9.10;;;4.40;;
18302;SDS011;9277;37.980;23.748;2024-02-21T08:14:13;7.18;;;4.43;;
18302;SDS011;9277;37.980;23.748;2024-02-21T08:16:41;5.75;;;3.92;;
18302;SDS011;9277;37.980;23.748;2024-02-21T08:19:08;7.30;;;4.43;;
18302;SDS011;9277;37.980;23.748;2024-02-21T08:21:35;5.90;;;4.00;;
18302;SDS011;9277;37.980;23.748;2024-02-21T08:24:02;7.00;;;4.40;;
18302;SDS011;9277;37.980;23.748;2024-02-21T08:26:31;6.95;;;4.40;;
18302;SDS011;9277;37.980;23.748;2024-02-21T08:28:58;7.47;;;4.20;;
18302;SDS011;9277;37.980;23.748;2024-02-21T08:31:25;7.95;;;4.40;;
18302;SDS011;9277;37.980;23.748;2024-02-21T08:33:56;7.25;;;4.60;;
18302;SDS011;9277;37.980;23.748;2024-02-21T08:36:27;5.97;;;4.15;;
18302;SDS011;9277;37.980;23.748;2024-02-21T08:38:54;8.23;;;4.43;;
18302;SDS011;9277;37.980;23.748;2024-02-21T08:41:21;9.00;;;4.80;;
18302;SDS011;9277;37.980;23.748;2024-02-21T08:43:50;9.23;;;5.55;;
18302;SDS011;9277;37.980;23.748;2024-02-21T08:46:16;10.30;;;4.85;;
18302;SDS011;9277;37.980;23.748;2024-02-21T08:48:43;6.47;;;4.22;;
18302;SDS011;9277;37.980;23.748;2024-02-21T08:51:11;6.38;;;4.47;;
18302;SDS011;9277;37.980;23.748;2024-02-21T08:53:38;6.60;;;4.40;;
18302;SDS011;9277;37.980;23.748;2024-02-21T08:56:05;9.25;;;4.85;;
18302;SDS011;9277;37.980;23.748;2024-02-21T08:58:32;7.82;;;4.30;;
18302;SDS011;9277;37.980;23.748;2024-02-21T09:01:01;8.98;;;5.03;;
18302;SDS011;9277;37.980;23.748;2024-02-21T09:03:29;8.85;;;5.20;;
18302;SDS011;9277;37.980;23.748;2024-02-21T09:05:57;7.85;;;4.60;;
18302;SDS011;9277;37.980;23.748;2024-02-21T09:08:24;7.10;;;4.70;;
18302;SDS011;9277;37.980;23.748;2024-02-21T09:10:51;7.90;;;4.22;;
18302;SDS011;9277;37.980;23.748;2024-02-21T09:13:18;6.97;;;4.50;;
18302;SDS011;9277;37.980;23.748;2024-02-21T09:15:45;11.98;;;4.80;;
18302;SDS011;9277;37.980;23.748;2024-02-21T09:18:13;7.15;;;4.32;;
18302;SDS011;9277;37.980;23.748;2024-02-21T09:20:40;8.77;;;4.45;;
18302;SDS011;9277;37.980;23.748;2024-02-21T09:23:07;9.20;;;4.82;;
18302;SDS011;9277;37.980;23.748;2024-02-21T09:25:34;6.75;;;4.47;;
18302;SDS011;9277;37.980;23.748;2024-02-21T09:28:01;8.18;;;4.70;;
18302;SDS011;9277;37.980;23.748;2024-02-21T09:30:29;9.43;;;4.38;;
18302;SDS011;9277;37.980;23.748;2024-02-21T09:32:55;11.55;;;6.25;;
18302;SDS011;9277;37.980;23.748;2024-02-21T09:35:25;7.13;;;4.07;;
18302;SDS011;9277;37.980;23.748;2024-02-21T09:37:53;7.55;;;4.57;;
18302;SDS011;9277;37.980;23.748;2024-02-21T09:40:20;7.75;;;4.80;;
18302;SDS011;9277;37.980;23.748;2024-02-21T09:42:47;7.18;;;4.10;;
18302;SDS011;9277;37.980;23.748;2024-02-21T09:45:15;6.57;;;4.13;;
18302;SDS011;9277;37.980;23.748;2024-02-21T09:47:48;7.32;;;4.35;;
18302;SDS011;9277;37.980;23.748;2024-02-21T09:50:17;7.55;;;4.65;;
18302;SDS011;9277;37.980;23.748;2024-02-21T09:52:48;8.77;;;4.53;;
18302;SDS011;9277;37.980;23.748;2024-02-21T09:55:15;6.43;;;4.50;;
18302;SDS011;9277;37.980;23.748;2024-02-21T09:57:43;6.65;;;4.40;;
18302;SDS011;9277;37.980;23.748;2024-02-21T10:00:11;7.88;;;4.53;;
18302;SDS011;9277;37.980;23.748;2024-02-21T10:02:39;7.45;;;4.53;;
18302;SDS011;9277;37.980;23.748;2024-02-21T10:05:06;6.88;;;4.18;;
18302;SDS011;9277;37.980;23.748;2024-02-21T10:07:33;8.80;;;5.03;;
18302;SDS011;9277;37.980;23.748;2024-02-21T10:10:02;6.75;;;4.47;;
18302;SDS011;9277;37.980;23.748;2024-02-21T10:12:29;7.18;;;4.22;;
18302;SDS011;9277;37.980;23.748;2024-02-21T10:15:02;8.07;;;5.05;;
18302;SDS011;9277;37.980;23.748;2024-02-21T10:17:30;9.20;;;4.90;;
18302;SDS011;9277;37.980;23.748;2024-02-21T10:20:06;7.57;;;4.28;;
18302;SDS011;9277;37.980;23.748;2024-02-21T10:22:33;6.90;;;4.40;;
18302;SDS011;9277;37.980;23.748;2024-02-21T10:25:08;6.40;;;4.78;;
18302;SDS011;9277;37.980;23.748;2024-02-21T10:27:35;11.88;;;4.85;;
18302;SDS011;9277;37.980;23.748;2024-02-21T10:30:03;6.82;;;4.38;;
18302;SDS011;9277;37.980;23.748;2024-02-21T10:32:30;7.60;;;4.38;;
18302;SDS011;9277;37.980;23.748;2024-02-21T10:35:01;9.05;;;4.65;;
18302;SDS011;9277;37.980;23.748;2024-02-21T10:37:28;5.72;;;4.03;;
18302;SDS011;9277;37.980;23.748;2024-02-21T10:39:55;6.53;;;4.50;;
18302;SDS011;9277;37.980;23.748;2024-02-21T10:42:28;9.98;;;4.63;;
18302;SDS011;9277;37.980;23.748;2024-02-21T10:44:55;8.15;;;5.20;;
18302;SDS011;9277;37.980;23.748;2024-02-21T10:47:24;11.77;;;4.20;;
18302;SDS011;9277;37.980;23.748;2024-02-21T10:49:57;9.50;;;4.35;;
18302;SDS011;9277;37.980;23.748;2024-02-21T10:52:31;8.02;;;4.65;;
18302;SDS011;9277;37.980;23.748;2024-02-21T10:55:03;11.07;;;4.85;;
18302;SDS011;9277;37.980;23.748;2024-02-21T10:57:32;8.05;;;4.75;;
18302;SDS011;9277;37.980;23.748;2024-02-21T11:00:00;6.43;;;4.30;;
18302;SDS011;9277;37.980;23.748;2024-02-21T11:02:28;7.68;;;4.90;;
18302;SDS011;9277;37.980;23.748;2024-02-21T11:04:56;10.52;;;5.30;;
18302;SDS011;9277;37.980;23.748;2024-02-21T11:07:24;7.47;;;4.82;;
18302;SDS011;9277;37.980;23.748;2024-02-21T11:09:51;7.28;;;4.25;;
18302;SDS011;9277;37.980;23.748;2024-02-21T11:12:20;11.55;;;6.20;;
18302;SDS011;9277;37.980;23.748;2024-02-21T11:14:50;7.68;;;4.88;;
18302;SDS011;9277;37.980;23.748;2024-02-21T11:17:17;8.45;;;5.10;;
18302;SDS011;9277;37.980;23.748;2024-02-21T11:19:44;11.55;;;6.15;;
18302;SDS011;9277;37.980;23.748;2024-02-21T11:22:14;10.68;;;5.97;;
18302;SDS011;9277;37.980;23.748;2024-02-21T11:24:41;11.27;;;5.72;;
18302;SDS011;9277;37.980;23.748;2024-02-21T11:27:08;14.65;;;7.28;;
18302;SDS011;9277;37.980;23.748;2024-02-21T11:29:39;17.00;;;7.13;;
18302;SDS011;9277;37.980;23.748;2024-02-21T11:32:10;8.85;;;5.68;;
18302;SDS011;9277;37.980;23.748;2024-02-21T11:34:37;14.60;;;5.75;;
18302;SDS011;9277;37.980;23.748;2024-02-21T11:37:12;10.02;;;5.88;;
18302;SDS011;9277;37.980;23.748;2024-02-21T11:39:41;10.95;;;5.65;;
18302;SDS011;9277;37.980;23.748;2024-02-21T11:42:08;14.50;;;7.22;;
18302;SDS011;9277;37.980;23.748;2024-02-21T11:44:36;14.55;;;6.18;;
18302;SDS011;9277;37.980;23.748;2024-02-21T11:47:05;13.27;;;6.30;;
18302;SDS011;9277;37.980;23.748;2024-02-21T11:49:35;12.93;;;6.43;;
18302;SDS011;9277;37.980;23.748;2024-02-21T11:52:02;10.98;;;6.30;;
18302;SDS011;9277;37.980;23.748;2024-02-21T11:54:30;12.00;;;6.47;;
18302;SDS011;9277;37.980;23.748;2024-02-21T11:56:57;11.07;;;6.22;;
18302;SDS011;9277;37.980;23.748;2024-02-21T11:59:24;18.48;;;8.25;;
18302;SDS011;9277;37.980;23.748;2024-02-21T12:01:52;14.98;;;8.25;;
18302;SDS011;9277;37.980;23.748;2024-02-21T12:04:19;13.80;;;7.07;;
18302;SDS011;9277;37.980;23.748;2024-02-21T12:06:48;19.05;;;7.55;;
18302;SDS011;9277;37.980;23.748;2024-02-21T12:09:15;11.48;;;6.63;;
18302;SDS011;9277;37.980;23.748;2024-02-21T12:11:43;13.95;;;6.90;;
18302;SDS011;9277;37.980;23.748;2024-02-21T12:14:10;13.45;;;6.57;;
18302;SDS011;9277;37.980;23.748;2024-02-21T12:16:37;12.30;;;6.43;;
18302;SDS011;9277;37.980;23.748;2024-02-21T12:19:04;12.77;;;6.53;;
18302;SDS011;9277;37.980;23.748;2024-02-21T12:21:32;13.75;;;6.10;;
18302;SDS011;9277;37.980;23.748;2024-02-21T12:24:14;12.48;;;6.22;;
18302;SDS011;9277;37.980;23.748;2024-02-21T12:26:41;12.88;;;6.55;;
18302;SDS011;9277;37.980;23.748;2024-02-21T12:29:07;13.95;;;6.38;;
18302;SDS011;9277;37.980;23.748;2024-02-21T12:31:35;10.02;;;6.10;;
18302;SDS011;9277;37.980;23.748;2024-02-21T12:34:02;12.07;;;6.20;;
18302;SDS011;9277;37.980;23.748;2024-02-21T12:36:29;12.57;;;6.45;;
18302;SDS011;9277;37.980;23.748;2024-02-21T12:38:56;12.65;;;6.15;;
18302;SDS011;9277;37.980;23.748;2024-02-21T12:41:24;11.50;;;5.40;;
18302;SDS011;9277;37.980;23.748;2024-02-21T12:43:52;13.18;;;6.50;;
18302;SDS011;9277;37.980;23.748;2024-02-21T12:46:19;17.55;;;7.63;;
18302;SDS011;9277;37.980;23.748;2024-02-21T12:48:46;13.88;;;7.18;;
18302;SDS011;9277;37.980;23.748;2024-02-21T12:51:13;12.50;;;6.43;;
18302;SDS011;9277;37.980;23.748;2024-02-21T12:53:40;9.35;;;5.82;;
18302;SDS011;9277;37.980;23.748;2024-02-21T12:56:07;12.38;;;6.15;;
18302;SDS011;9277;37.980;23.748;2024-02-21T12:58:36;11.77;;;6.80;;
18302;SDS011;9277;37.980;23.748;2024-02-21T13:01:03;10.27;;;5.75;;
18302;SDS011;9277;37.980;23.748;2024-02-21T13:03:30;11.18;;;6.97;;
18302;SDS011;9277;37.980;23.748;2024-02-21T13:05:57;13.45;;;6.35;;
18302;SDS011;9277;37.980;23.748;2024-02-21T13:08:24;12.60;;;5.32;;
18302;SDS011;9277;37.980;23.748;2024-02-21T13:10:51;13.15;;;6.70;;
18302;SDS011;9277;37.980;23.748;2024-02-21T13:13:19;11.13;;;6.25;;
18302;SDS011;9277;37.980;23.748;2024-02-21T13:15:47;11.57;;;6.07;;
18302;SDS011;9277;37.980;23.748;2024-02-21T13:18:14;9.65;;;5.70;;
18302;SDS011;9277;37.980;23.748;2024-02-21T13:20:41;11.93;;;5.88;;
18302;SDS011;9277;37.980;23.748;2024-02-21T13:23:08;11.57;;;5.80;;
18302;SDS011;9277;37.980;23.748;2024-02-21T13:25:35;9.13;;;5.38;;
18302;SDS011;9277;37.980;23.748;2024-02-21T13:28:02;8.73;;;5.78;;
18302;SDS011;9277;37.980;23.748;2024-02-21T13:30:29;9.45;;;5.60;;
18302;SDS011;9277;37.980;23.748;2024-02-21T13:32:59;10.95;;;6.00;;
18302;SDS011;9277;37.980;23.748;2024-02-21T13:35:26;11.75;;;6.57;;
18302;SDS011;9277;37.980;23.748;2024-02-21T13:37:53;9.20;;;5.50;;
18302;SDS011;9277;37.980;23.748;2024-02-21T13:40:20;9.48;;;5.10;;
18302;SDS011;9277;37.980;23.748;2024-02-21T13:42:47;12.45;;;5.82;;
18302;SDS011;9277;37.980;23.748;2024-02-21T13:45:15;11.55;;;6.20;;
18302;SDS011;9277;37.980;23.748;2024-02-21T13:47:42;11.55;;;6.13;;
18302;SDS011;9277;37.980;23.748;2024-02-21T13:50:10;10.98;;;6.25;;
18302;SDS011;9277;37.980;23.748;2024-02-21T13:52:39;13.88;;;7.10;;
18302;SDS011;9277;37.980;23.748;2024-02-21T13:55:07;12.13;;;6.50;;
18302;SDS011;9277;37.980;23.748;2024-02-21T13:57:35;12.18;;;6.22;;
18302;SDS011;9277;37.980;23.748;2024-02-21T14:00:02;11.43;;;6.18;;
18302;SDS011;9277;37.980;23.748;2024-02-21T14:02:30;10.85;;;6.05;;
18302;SDS011;9277;37.980;23.748;2024-02-21T14:04:57;11.80;;;6.18;;
18302;SDS011;9277;37.980;23.748;2024-02-21T14:07:26;10.32;;;6.28;;
18302;SDS011;9277;37.980;23.748;2024-02-21T14:09:54;11.75;;;6.70;;
18302;SDS011;9277;37.980;23.748;2024-02-21T14:12:21;11.20;;;6.28;;
18302;SDS011;9277;37.980;23.748;2024-02-21T14:14:48;14.25;;;6.75;;
18302;SDS011;9277;37.980;23.748;2024-02-21T14:17:17;13.90;;;6.90;;
18302;SDS011;9277;37.980;23.748;2024-02-21T14:19:44;15.98;;;7.68;;
18302;SDS011;9277;37.980;23.748;2024-02-21T14:22:19;11.25;;;6.68;;
18302;SDS011;9277;37.980;23.748;2024-02-21T14:24:48;13.00;;;7.03;;
18302;SDS011;9277;37.980;23.748;2024-02-21T14:27:14;12.80;;;7.03;;
18302;SDS011;9277;37.980;23.748;2024-02-21T14:29:41;12.40;;;6.65;;
18302;SDS011;9277;37.980;23.748;2024-02-21T14:32:09;10.57;;;6.28;;
18302;SDS011;9277;37.980;23.748;2024-02-21T14:34:36;15.23;;;6.60;;
18302;SDS011;9277;37.980;23.748;2024-02-21T14:37:03;13.70;;;7.20;;
18302;SDS011;9277;37.980;23.748;2024-02-21T14:39:33;12.55;;;6.63;;
18302;SDS011;9277;37.980;23.748;2024-02-21T14:42:04;15.30;;;7.35;;